Time;durP1;ratioP1;P1;durP2;ratioP2;P2;SDS_P1;SDS_P2;PMS_P1;PMS_P2;Temp;Humidity;BMP_temperature;BMP_pressure;BME280_temperature;BME280_humidity;BME280_pressure;Samples;Min_cycle;Max_cycle;Signal;HPM_P1;HPM_P2
2022/02/09 00:01:27;;;;;;;9.63;5.53;;;;;;;;;;5025007;28;20091;-49
2022/02/09 00:09:00;;;;;;;20.27;9.48;;;;;;;;;;5043764;28;20037;-49
2022/02/09 00:11:30;;;;;;;19.40;8.95;;;;;;;;;;5043715;28;20024;-47
2022/02/09 00:14:01;;;;;;;17.58;9.15;;;;;;;;;;5042380;28;20033;-48
2022/02/09 00:19:13;;;;;;;17.50;8.65;;;;;;;;;;5043088;28;20036;-48
2022/02/09 01:56:33;;;;;;;10.63;4.72;;;;;;;;;;5026560;28;20048;-50
2022/02/09 01:59:00;;;;;;;9.35;4.68;;;;;;;;;;5026660;28;20036;-49
2022/02/09 02:01:26;;;;;;;8.30;4.43;;;;;;;;;;5025726;28;20036;-51
2022/02/09 02:03:52;;;;;;;7.47;4.15;;;;;;;;;;5026908;28;20032;-49
2022/02/09 02:06:19;;;;;;;8.02;4.53;;;;;;;;;;5026650;28;20422;-47
2022/02/09 02:08:47;;;;;;;6.95;3.53;;;;;;;;;;5025068;28;20263;-50
2022/02/09 02:11:25;;;;;;;6.53;3.90;;;;;;;;;;5026161;28;20025;-48
2022/02/09 02:16:47;;;;;;;7.75;3.95;;;;;;;;;;5026037;28;20546;-49
2022/02/09 03:14:57;;;;;;;4.40;2.25;;;;;;;;;;5033184;28;20125;-49
2022/02/09 03:17:32;;;;;;;5.53;2.80;;;;;;;;;;5025421;28;20548;-46
2022/02/09 03:20:08;;;;;;;5.85;3.55;;;;;;;;;;5025571;28;20022;-49
2022/02/09 03:22:52;;;;;;;4.07;2.72;;;;;;;;;;5025371;28;20021;-50
2022/02/09 03:25:51;;;;;;;6.75;2.97;;;;;;;;;;5025258;28;20052;-48
2022/02/09 03:54:52;;;;;;;5.03;2.88;;;;;;;;;;5025019;28;20041;-47
2022/02/09 03:58:01;;;;;;;5.97;2.88;;;;;;;;;;5024766;28;20405;-50
2022/02/09 04:00:08;;;;;;;4.78;2.55;;;;;;;;;;5029393;28;20120;-50
2022/02/09 04:02:35;;;;;;;6.47;2.75;;;;;;;;;;5024919;28;20033;-47
2022/02/09 04:05:01;;;;;;;5.20;2.60;;;;;;;;;;5024909;28;20034;-49
2022/02/09 04:07:27;;;;;;;5.68;2.90;;;;;;;;;;5023369;28;20128;-50
2022/02/09 04:09:57;;;;;;;6.82;3.17;;;;;;;;;;5024734;28;20117;-50
2022/02/09 04:15:28;;;;;;;6.93;3.60;;;;;;;;;;5023110;28;20041;-49
2022/02/09 04:23:12;;;;;;;4.63;2.67;;;;;;;;;;5024875;28;20319;-47
2022/02/09 04:42:00;;;;;;;4.13;2.63;;;;;;;;;;5024241;28;20118;-50
2022/02/09 04:52:26;;;;;;;5.40;2.88;;;;;;;;;;5024033;28;20471;-49
2022/02/09 04:57:51;;;;;;;6.03;2.92;;;;;;;;;;5044889;28;20102;-49
2022/02/09 05:00:32;;;;;;;5.20;3.15;;;;;;;;;;5043720;28;20120;-48
2022/02/09 05:27:18;;;;;;;5.05;2.63;;;;;;;;;;5026855;28;20117;-47
2022/02/09 05:29:45;;;;;;;7.07;3.83;;;;;;;;;;5027452;28;20025;-48
2022/02/09 05:32:12;;;;;;;5.07;2.85;;;;;;;;;;5027314;28;20061;-49
2022/02/09 05:34:38;;;;;;;4.93;3.10;;;;;;;;;;5027425;28;20078;-49
2022/02/09 05:37:04;;;;;;;3.90;2.65;;;;;;;;;;5028057;28;20025;-48
2022/02/09 05:39:30;;;;;;;4.97;2.85;;;;;;;;;;5026751;28;20034;-49
2022/02/09 05:41:57;;;;;;;4.25;2.65;;;;;;;;;;5027410;28;20041;-51
2022/02/09 05:44:23;;;;;;;4.63;2.35;;;;;;;;;;5026853;28;20104;-49
2022/02/09 05:49:46;;;;;;;3.55;2.20;;;;;;;;;;5027626;28;20116;-47
2022/02/09 05:52:26;;;;;;;4.15;2.13;;;;;;;;;;5026598;28;20564;-51
2022/02/09 05:59:48;;;;;;;5.72;3.00;;;;;;;;;;5031511;28;20053;-46
2022/02/09 06:02:16;;;;;;;4.40;2.80;;;;;;;;;;5058738;28;20024;-50
2022/02/09 06:04:42;;;;;;;5.30;3.17;;;;;;;;;;5068400;28;20025;-51
2022/02/09 06:07:09;;;;;;;5.03;3.03;;;;;;;;;;5064984;28;20123;-50
2022/02/09 06:09:39;;;;;;;5.25;3.00;;;;;;;;;;5048681;28;20033;-51
2022/02/09 06:12:28;;;;;;;4.72;2.85;;;;;;;;;;5034183;28;20072;-47
2022/02/09 06:20:19;;;;;;;4.47;2.60;;;;;;;;;;5027770;28;20039;-47
2022/02/09 06:22:45;;;;;;;3.92;2.40;;;;;;;;;;5064473;28;20669;-51
2022/02/09 06:25:12;;;;;;;6.15;2.70;;;;;;;;;;5047546;28;20628;-51
2022/02/09 06:27:38;;;;;;;4.45;2.63;;;;;;;;;;5028006;28;20025;-47
2022/02/09 06:30:04;;;;;;;4.50;2.70;;;;;;;;;;5031347;28;20029;-47
2022/02/09 06:32:30;;;;;;;4.10;2.30;;;;;;;;;;5047576;28;20035;-47
2022/02/09 06:34:57;;;;;;;5.65;3.00;;;;;;;;;;5036164;28;20440;-50
2022/02/09 06:37:34;;;;;;;3.88;2.50;;;;;;;;;;5027647;28;20025;-49
2022/02/09 06:40:01;;;;;;;4.57;2.33;;;;;;;;;;5027963;28;20029;-49
2022/02/09 06:42:29;;;;;;;5.55;3.50;;;;;;;;;;5026982;28;20021;-48
2022/02/09 06:44:58;;;;;;;7.57;3.95;;;;;;;;;;5038766;28;20120;-47
2022/02/09 06:47:27;;;;;;;6.95;3.70;;;;;;;;;;5031389;28;20097;-50
2022/02/09 06:49:59;;;;;;;6.38;3.15;;;;;;;;;;5027583;28;20030;-47
2022/02/09 06:52:25;;;;;;;5.03;3.22;;;;;;;;;;5036699;28;20013;-46
2022/02/09 06:58:17;;;;;;;4.68;2.88;;;;;;;;;;5046417;28;20258;-48
2022/02/09 07:00:31;;;;;;;6.53;3.80;;;;;;;;;;5037779;28;20064;-49
2022/02/09 07:02:58;;;;;;;6.20;3.30;;;;;;;;;;5029943;28;20398;-48
2022/02/09 07:05:24;;;;;;;5.45;3.10;;;;;;;;;;5043230;28;20041;-47
2022/02/09 07:07:50;;;;;;;4.97;2.95;;;;;;;;;;5030039;28;20032;-46
2022/02/09 07:10:18;;;;;;;5.93;3.10;;;;;;;;;;5036490;28;20045;-48
2022/02/09 07:12:44;;;;;;;5.97;3.00;;;;;;;;;;5025976;28;20022;-47
2022/02/09 07:15:15;;;;;;;5.80;2.97;;;;;;;;;;5043684;28;20111;-47
2022/02/09 07:17:43;;;;;;;6.43;3.10;;;;;;;;;;5043540;28;20504;-47
2022/02/09 07:20:22;;;;;;;6.65;3.22;;;;;;;;;;5032086;28;20032;-50
2022/02/09 07:22:51;;;;;;;4.75;2.75;;;;;;;;;;5042158;28;20094;-49
2022/02/09 07:25:21;;;;;;;5.68;3.33;;;;;;;;;;5032516;28;20501;-47
2022/02/09 07:30:14;;;;;;;5.40;3.00;;;;;;;;;;5026599;28;20527;-49
2022/02/09 07:32:41;;;;;;;7.00;3.33;;;;;;;;;;5026349;28;20032;-50
2022/02/09 07:35:07;;;;;;;5.72;3.35;;;;;;;;;;5026339;28;20034;-49
2022/02/09 07:37:34;;;;;;;8.32;4.20;;;;;;;;;;5031185;28;20400;-47
2022/02/09 07:40:04;;;;;;;5.80;3.55;;;;;;;;;;5044795;28;20029;-47
2022/02/09 07:42:33;;;;;;;6.60;3.47;;;;;;;;;;5044665;28;20559;-49
2022/02/09 07:45:30;;;;;;;5.18;3.30;;;;;;;;;;5030923;28;20048;-48
2022/02/09 07:52:52;;;;;;;5.57;3.50;;;;;;;;;;5025070;28;20036;-50
2022/02/09 07:55:18;;;;;;;8.13;4.03;;;;;;;;;;5037034;28;20116;-50
2022/02/09 07:57:44;;;;;;;8.18;4.22;;;;;;;;;;5042693;28;20091;-47
2022/02/09 08:00:13;;;;;;;8.88;4.00;;;;;;;;;;5045974;28;20112;-50
2022/02/09 08:02:39;;;;;;;7.53;3.78;;;;;;;;;;5033190;28;20095;-49
2022/02/09 08:05:05;;;;;;;5.53;3.22;;;;;;;;;;5030571;28;20478;-49
2022/02/09 08:07:31;;;;;;;7.68;3.88;;;;;;;;;;5033660;28;20092;-49
2022/02/09 08:09:59;;;;;;;6.13;3.22;;;;;;;;;;5026063;28;20396;-47
2022/02/09 08:20:37;;;;;;;;;;;;;;;;;;5026455;28;20428;-47
2022/02/09 08:29:03;;;;;;;5.28;3.03;;;;;;;;;;5061633;28;20021;-52
2022/02/09 08:31:58;;;;;;;15.70;3.13;;;;;;;;;;5030088;28;20048;-53
2022/02/09 08:34:25;;;;;;;4.60;2.40;;;;;;;;;;5034540;28;20020;-52
2022/02/09 08:36:53;;;;;;;3.83;2.38;;;;;;;;;;5045497;28;20025;-50
2022/02/09 08:39:19;;;;;;;4.25;2.60;;;;;;;;;;5029314;28;20021;-50
2022/02/09 08:41:45;;;;;;;5.78;2.45;;;;;;;;;;5032798;28;20047;-50
2022/02/09 08:44:11;;;;;;;3.83;2.00;;;;;;;;;;5034589;28;20513;-51
2022/02/09 08:46:40;;;;;;;3.50;2.15;;;;;;;;;;5036687;28;20032;-50
2022/02/09 08:49:06;;;;;;;3.72;2.22;;;;;;;;;;5032649;28;20072;-47
2022/02/09 08:51:34;;;;;;;2.70;1.90;;;;;;;;;;5033815;28;20043;-50
2022/02/09 08:54:00;;;;;;;3.92;2.13;;;;;;;;;;5041705;28;20041;-50
2022/02/09 08:56:28;;;;;;;3.88;2.15;;;;;;;;;;5029565;28;20022;-49
2022/02/09 08:58:55;;;;;;;2.58;1.80;;;;;;;;;;5030284;28;20022;-48
2022/02/09 09:01:58;;;;;;;3.95;1.80;;;;;;;;;;5045437;28;20039;-47
2022/02/09 09:04:22;;;;;;;3.15;2.10;;;;;;;;;;5049739;28;20480;-50
2022/02/09 09:06:56;;;;;;;3.13;1.83;;;;;;;;;;5048026;28;20732;-50
2022/02/09 09:58:24;;;;;;;5.70;1.85;;;;;;;;;;5027976;28;20091;-50
2022/02/09 10:33:56;;;;;;;4.55;1.60;;;;;;;;;;5028017;28;20030;-50
2022/02/09 10:36:23;;;;;;;3.15;1.33;;;;;;;;;;5027718;28;20026;-50
2022/02/09 10:38:51;;;;;;;3.72;1.90;;;;;;;;;;5027433;28;20523;-50
2022/02/09 10:41:25;;;;;;;6.85;2.08;;;;;;;;;;5026679;28;20393;-47
2022/02/09 10:44:08;;;;;;;3.85;1.70;;;;;;;;;;5028659;28;20568;-51
2022/02/09 10:46:46;;;;;;;11.07;2.92;;;;;;;;;;5034273;28;20037;-51
2022/02/09 10:49:12;;;;;;;7.38;2.00;;;;;;;;;;5044916;28;20112;-50
2022/02/09 10:51:47;;;;;;;5.65;2.08;;;;;;;;;;5045369;28;20033;-49
2022/02/09 10:54:14;;;;;;;6.95;1.90;;;;;;;;;;5044357;28;20120;-49
2022/02/09 10:56:44;;;;;;;4.07;1.90;;;;;;;;;;5045928;28;20305;-51
2022/02/09 10:59:11;;;;;;;6.57;2.00;;;;;;;;;;5033593;28;20029;-49
2022/02/09 11:01:39;;;;;;;3.75;1.77;;;;;;;;;;5031575;28;20059;-50
2022/02/09 11:04:06;;;;;;;4.75;1.60;;;;;;;;;;5047149;28;20021;-48
2022/02/09 11:06:34;;;;;;;4.20;1.75;;;;;;;;;;5043393;28;20044;-46
2022/02/09 11:09:01;;;;;;;6.53;2.00;;;;;;;;;;5047058;28;20033;-50
2022/02/09 11:11:28;;;;;;;5.18;2.00;;;;;;;;;;5045463;28;20102;-47
2022/02/09 11:13:54;;;;;;;5.28;2.10;;;;;;;;;;5037514;28;20021;-50
2022/02/09 11:16:22;;;;;;;7.10;2.38;;;;;;;;;;5026528;28;20129;-50
2022/02/09 11:18:49;;;;;;;5.47;2.22;;;;;;;;;;5028390;28;20389;-50
2022/02/09 11:21:15;;;;;;;5.93;1.88;;;;;;;;;;5027830;28;20122;-49
2022/02/09 11:23:41;;;;;;;4.32;2.17;;;;;;;;;;5036838;28;20033;-46
2022/02/09 11:26:26;;;;;;;3.53;1.60;;;;;;;;;;5042195;28;20135;-50
2022/02/09 11:29:17;;;;;;;5.32;2.28;;;;;;;;;;5042067;28;20024;-51
2022/02/09 12:13:52;;;;;;;5.82;2.47;;;;;;;;;;5035362;28;20037;-50
2022/02/09 12:19:03;;;;;;;5.32;2.05;;;;;;;;;;5047468;28;20040;-48
2022/02/09 12:24:35;;;;;;;3.13;1.35;;;;;;;;;;5037782;28;20136;-52
2022/02/09 12:27:03;;;;;;;4.25;2.20;;;;;;;;;;5031239;28;20036;-50
2022/02/09 12:29:34;;;;;;;4.22;1.80;;;;;;;;;;5035876;28;20435;-50
2022/02/09 12:32:00;;;;;;;4.93;1.75;;;;;;;;;;5042824;28;20090;-47
2022/02/09 12:34:28;;;;;;;3.47;1.77;;;;;;;;;;5044943;28;20017;-48
2022/02/09 12:36:55;;;;;;;3.75;1.70;;;;;;;;;;5040125;28;20025;-47
2022/02/09 12:39:23;;;;;;;3.50;1.45;;;;;;;;;;5048181;28;20021;-47
2022/02/09 12:41:49;;;;;;;4.05;1.35;;;;;;;;;;5031461;28;20033;-49
2022/02/09 12:44:23;;;;;;;4.00;1.48;;;;;;;;;;5042742;28;20029;-46
2022/02/09 12:46:49;;;;;;;2.65;1.52;;;;;;;;;;5031977;28;20124;-49
2022/02/09 12:49:16;;;;;;;2.92;1.38;;;;;;;;;;5040054;28;20104;-49
2022/02/09 12:51:43;;;;;;;2.63;1.45;;;;;;;;;;5042081;28;20026;-50
2022/02/09 12:54:10;;;;;;;3.28;1.25;;;;;;;;;;5034197;28;20484;-51
2022/02/09 12:56:41;;;;;;;3.05;1.38;;;;;;;;;;5038952;28;20040;-51
2022/02/09 12:59:09;;;;;;;2.20;1.52;;;;;;;;;;5046454;28;20033;-50
2022/02/09 13:01:39;;;;;;;4.80;2.00;;;;;;;;;;5040957;28;20112;-49
2022/02/09 13:04:05;;;;;;;2.63;1.50;;;;;;;;;;5031824;28;20207;-49
2022/02/09 13:06:31;;;;;;;4.93;1.63;;;;;;;;;;5040121;28;20098;-49
2022/02/09 13:08:58;;;;;;;2.13;1.35;;;;;;;;;;5048255;28;20111;-49
2022/02/09 13:13:55;;;;;;;4.45;2.00;;;;;;;;;;5031105;28;20037;-48
2022/02/09 13:53:04;;;;;;;2.22;1.50;;;;;;;;;;5027766;28;20096;-47
2022/02/09 14:56:00;;;;;;;;;;;;;;;;;;5045194;28;20047;-48
2022/02/09 14:58:29;;;;;;;2.00;1.40;;;;;;;;;;5030210;28;19938;-48
2022/02/09 15:01:21;;;;;;;4.43;1.80;;;;;;;;;;5028759;28;20032;-47
2022/02/09 15:04:08;;;;;;;4.93;2.10;;;;;;;;;;5046716;28;20028;-49
2022/02/09 15:09:13;;;;;;;4.40;2.50;;;;;;;;;;5024871;28;20052;-50
2022/02/09 15:11:54;;;;;;;5.32;2.50;;;;;;;;;;5032933;28;20029;-50
2022/02/09 15:14:31;;;;;;;3.15;1.60;;;;;;;;;;5037841;28;20452;-50
2022/02/09 15:22:33;;;;;;;3.92;1.80;;;;;;;;;;5037755;28;20034;-48
2022/02/09 15:24:59;;;;;;;3.45;1.70;;;;;;;;;;5040403;28;20054;-50
2022/02/09 15:27:26;;;;;;;5.40;1.98;;;;;;;;;;5030467;28;20456;-50
2022/02/09 15:29:53;;;;;;;4.28;1.88;;;;;;;;;;5026949;28;20071;-51
2022/02/09 15:32:28;;;;;;;2.25;1.30;;;;;;;;;;5026750;28;20021;-49
2022/02/09 15:35:09;;;;;;;3.13;1.63;;;;;;;;;;5033258;28;20664;-50
2022/02/09 15:37:46;;;;;;;4.28;1.73;;;;;;;;;;5046443;28;20416;-50
2022/02/09 15:40:37;;;;;;;3.67;1.75;;;;;;;;;;5042882;28;20029;-50
2022/02/09 15:43:18;;;;;;;4.50;1.70;;;;;;;;;;5043085;28;20393;-50
2022/02/09 16:23:32;;;;;;;2.95;1.60;;;;;;;;;;5024286;28;20033;-50
2022/02/09 16:26:15;;;;;;;5.43;3.00;;;;;;;;;;5025679;28;20061;-50
2022/02/09 16:44:56;;;;;;;4.63;2.55;;;;;;;;;;5024835;28;20064;-48
2022/02/09 16:50:04;;;;;;;4.57;2.30;;;;;;;;;;5024525;28;20075;-50
2022/02/09 16:52:49;;;;;;;3.33;2.20;;;;;;;;;;5024450;28;20022;-52
2022/02/09 17:19:54;;;;;;;2.83;1.73;;;;;;;;;;5024419;28;19963;-52
2022/02/09 17:22:20;;;;;;;3.10;1.58;;;;;;;;;;5025176;28;20032;-48
2022/02/09 17:24:46;;;;;;;3.40;1.75;;;;;;;;;;5028169;28;20018;-49
2022/02/09 17:27:18;;;;;;;3.03;1.50;;;;;;;;;;5027948;28;20033;-50
2022/02/09 17:30:17;;;;;;;4.80;2.13;;;;;;;;;;5027879;28;20018;-50
2022/02/09 17:32:51;;;;;;;6.80;2.90;;;;;;;;;;5027388;28;20226;-50
2022/02/09 17:35:23;;;;;;;5.20;2.47;;;;;;;;;;5027412;28;20030;-50
2022/02/09 17:57:02;;;;;;;4.78;2.50;;;;;;;;;;5036022;28;20378;-49
2022/02/09 17:59:31;;;;;;;4.60;2.08;;;;;;;;;;5027475;28;20513;-50
2022/02/09 18:01:57;;;;;;;5.45;2.40;;;;;;;;;;5027075;28;20029;-51
2022/02/09 18:04:24;;;;;;;3.75;2.45;;;;;;;;;;5026990;28;20969;-49
2022/02/09 18:07:05;;;;;;;4.03;2.05;;;;;;;;;;5026810;28;20038;-49
2022/02/09 18:09:38;;;;;;;6.93;2.50;;;;;;;;;;5027308;28;20029;-49
2022/02/09 18:26:21;;;;;;;7.47;2.95;;;;;;;;;;5026651;28;20036;-50
2022/02/09 18:28:57;;;;;;;8.75;3.38;;;;;;;;;;5026156;28;20038;-46
2022/02/09 18:31:22;;;;;;;8.52;3.05;;;;;;;;;;5026482;28;20033;-47
2022/02/09 18:34:05;;;;;;;10.27;3.38;;;;;;;;;;5026020;28;20110;-47
2022/02/09 18:57:06;;;;;;;;;;;;;;;;;;5026871;28;20041;-49
2022/02/09 18:59:26;;;;;;;8.35;3.28;;;;;;;;;;5025440;28;19958;-46
2022/02/09 19:04:28;;;;;;;8.50;4.00;;;;;;;;;;5025869;28;19970;-48
2022/02/09 19:14:53;;;;;;;6.65;3.75;;;;;;;;;;5026021;28;20101;-49
2022/02/09 19:52:16;;;;;;;10.68;3.33;;;;;;;;;;5025288;28;20021;-50
2022/02/09 19:57:28;;;;;;;14.50;4.20;;;;;;;;;;5024775;28;20076;-49
2022/02/09 19:59:57;;;;;;;8.27;3.70;;;;;;;;;;5024722;28;20029;-48
2022/02/09 20:02:25;;;;;;;13.13;4.05;;;;;;;;;;5024765;28;20548;-47
2022/02/09 20:04:55;;;;;;;12.73;4.10;;;;;;;;;;5024723;28;20045;-48
2022/02/09 20:07:21;;;;;;;15.75;4.50;;;;;;;;;;5024767;28;20453;-49
2022/02/09 20:09:48;;;;;;;11.07;4.38;;;;;;;;;;5025069;28;20511;-48
2022/02/09 20:12:16;;;;;;;9.52;4.03;;;;;;;;;;5024091;28;20508;-47
2022/02/09 20:14:47;;;;;;;12.38;3.90;;;;;;;;;;5025115;28;20017;-50
2022/02/09 20:17:13;;;;;;;9.27;4.15;;;;;;;;;;5025268;28;20037;-48
2022/02/09 20:19:42;;;;;;;10.48;3.70;;;;;;;;;;5024537;28;20105;-49
2022/02/09 20:22:08;;;;;;;7.90;3.75;;;;;;;;;;5024463;28;20416;-51
2022/02/09 20:24:34;;;;;;;9.65;4.00;;;;;;;;;;5024716;28;20378;-49
2022/02/09 20:27:04;;;;;;;13.73;4.40;;;;;;;;;;5024627;28;20036;-49
2022/02/09 20:29:32;;;;;;;14.13;4.28;;;;;;;;;;5024485;28;20018;-50
2022/02/09 20:32:13;;;;;;;14.55;4.03;;;;;;;;;;5034409;28;20040;-49
2022/02/09 20:34:51;;;;;;;12.90;4.35;;;;;;;;;;5044050;28;20025;-49
2022/02/09 20:37:17;;;;;;;11.18;4.25;;;;;;;;;;5044205;28;20129;-47
2022/02/09 20:39:56;;;;;;;11.15;3.80;;;;;;;;;;5045095;28;20079;-48
2022/02/09 20:42:23;;;;;;;12.43;4.32;;;;;;;;;;5044033;28;20021;-51
2022/02/09 20:44:58;;;;;;;10.25;3.80;;;;;;;;;;5044511;28;20111;-50
2022/02/09 20:47:24;;;;;;;10.95;4.47;;;;;;;;;;5044066;28;20068;-50
2022/02/09 20:49:50;;;;;;;10.85;3.80;;;;;;;;;;5044217;28;20090;-48
2022/02/09 20:52:16;;;;;;;11.02;4.00;;;;;;;;;;5044188;28;20025;-47
2022/02/09 20:54:43;;;;;;;13.45;4.70;;;;;;;;;;5044962;28;20029;-49
2022/02/09 20:57:09;;;;;;;11.02;4.07;;;;;;;;;;5047037;28;20036;-49
2022/02/09 20:59:42;;;;;;;11.88;4.45;;;;;;;;;;5048083;28;20032;-50
2022/02/09 21:02:39;;;;;;;12.05;4.60;;;;;;;;;;5047911;28;20480;-50
2022/02/09 21:08:05;;;;;;;13.18;4.65;;;;;;;;;;5044400;28;20048;-50
2022/02/09 21:10:47;;;;;;;17.45;4.93;;;;;;;;;;5030548;28;20030;-47
2022/02/09 21:13:28;;;;;;;12.93;4.47;;;;;;;;;;5032489;28;20021;-49
2022/02/09 21:16:10;;;;;;;15.60;4.75;;;;;;;;;;5029725;28;20153;-47
2022/02/09 21:32:09;;;;;;;13.20;3.97;;;;;;;;;;5046976;28;20043;-49
2022/02/09 21:52:07;;;;;;;8.10;2.75;;;;;;;;;;5037955;28;20033;-50
2022/02/09 22:27:41;;;;;;;9.63;2.85;;;;;;;;;;5063023;28;20120;-48
2022/02/09 22:49:15;;;;;;;8.68;2.85;;;;;;;;;;5046197;28;20522;-48
2022/02/09 22:54:41;;;;;;;8.20;3.08;;;;;;;;;;5043155;28;20040;-48
2022/02/09 22:57:08;;;;;;;11.65;3.63;;;;;;;;;;5045330;28;20283;-50
2022/02/09 22:59:49;;;;;;;10.07;3.17;;;;;;;;;;5044906;28;20496;-46
2022/02/09 23:02:29;;;;;;;8.98;2.72;;;;;;;;;;5044364;28;20438;-47
2022/02/09 23:07:56;;;;;;;10.23;3.17;;;;;;;;;;5044811;28;20043;-47
2022/02/09 23:12:59;;;;;;;10.60;2.90;;;;;;;;;;5043893;28;20032;-48
2022/02/09 23:15:36;;;;;;;9.70;3.38;;;;;;;;;;5044003;28;20056;-50
2022/02/09 23:18:38;;;;;;;7.82;3.15;;;;;;;;;;5040447;28;20043;-47
2022/02/09 23:21:29;;;;;;;;;;;;;;;;;;5033781;28;20037;-48
